Intergalactic Aerodrome

CA-0677 · 不列颠哥伦比亚, 加拿大

METAR的历史 CA-0677 · Intergalactic Aerodrome

下面你可以看到过去几天的METARs。 选择年份以浏览从2007年开始的旧METAR。

2024年4月14日

时间 代码 天气 温度 能见度 天花板 METAR/SPECI
19:00
V
14 °C 30 mi 14.000 ft 230° 230° 11 kt METAR CYXX 150200Z 23011KT 30SM BKN140 BKN230 14/06 A2997 RMK AC5CI2 AC LENT OVR MTS E SLP152
18:00
V
15 °C 30 mi 24.000 ft 230° 230° 9 kt METAR CYXX 150100Z 23009KT 30SM SCT150 BKN240 15/07 A2997 RMK AC3CI3 SLP152
17:00
V
17 °C 30 mi 25.000 ft 210° 210° 8 kt METAR CYXX 150000Z 21008KT 190V260 30SM SCT150 BKN250 17/05 A2997 RMK AC3CI4 AC LENT OVR MTS E SLP152 DENSITY ALT 500FT
16:00
V
17 °C 30 mi 25.000 ft 200° 200° 10 kt METAR CYXX 142300Z 20010KT 30SM BKN250 17/06 A2997 RMK CI7 SLP151 DENSITY ALT 400FT
15:00
V
17 °C 30 mi 25.000 ft 200° 200° 10 - 16 kt METAR CYXX 142200Z 20010G16KT 30SM BKN250 17/08 A2998 RMK CI6 SLP155 DENSITY ALT 400FT
14:00
V
17 °C 30 mi 25.000 ft 240° 240° 9 kt METAR CYXX 142100Z 24009KT 30SM FEW150 BKN250 17/08 A2998 RMK AC1CI6 AC TR SLP155 DENSITY ALT 400FT
13:00
V
15 °C 30 mi 25.000 ft 240° 240° 4 kt METAR CYXX 142000Z 24004KT 190V280 30SM BKN250 15/07 A2998 RMK CI6 SLP157
12:00
V
14 °C 30 mi 25.000 ft 210° 210° 6 kt METAR CYXX 141900Z 21006KT 30SM BKN250 14/07 A2999 RMK CI7 SLP158
11:00
V
13 °C 30 mi 25.000 ft Var Var 3 kt METAR CYXX 141800Z VRB03KT 30SM FEW050 BKN250 13/06 A3000 RMK CU1CI5 CU TR SLP161
10:00
V
11 °C 30 mi 25.000 ft 170° 170° 3 kt METAR CYXX 141700Z 17003KT 150V260 30SM FEW040 BKN250 11/06 A2999 RMK CU1CI5 CU TR SLP160
09:00
V
10 °C 30 mi 24.000 ft Var Var 2 kt METAR CYXX 141600Z VRB02KT 30SM BKN240 10/06 A2998 RMK CI5 SLP157
08:00
V
9 °C 30 mi - 360° 360° 0 kt METAR CYXX 141500Z 00000KT 30SM FEW230 SCT260 09/06 A2998 RMK CI2CI3 SLP156
07:00
V
5 °C 30 mi 26.000 ft 360° 360° 3 kt METAR CYXX 141400Z 36003KT 350V060 30SM FEW230 BKN260 05/04 A2998 RMK CI1CI5 CI TR SLP155
06:00
V
5 °C 30 mi - 340° 340° 2 kt METAR CYXX 141300Z 34002KT 30SM FEW250 05/04 A2997 RMK CI1 CONTRAILS SLP152
05:00
V
4 °C 15 mi - 020° 020° 2 kt METAR CYXX 141200Z 02002KT 15SM FEW250 04/03 A2996 RMK CI2 SLP148
04:00
V
5 °C 15 mi - 360° 360° 0 kt METAR CYXX 141100Z 00000KT 15SM FEW250 05/04 A2996 RMK CI1 SLP148
03:00
V
5 °C 15 mi - 360° 360° 2 kt METAR CYXX 141000Z 36002KT 15SM FEW240 05/04 A2995 RMK CI2 SLP145
02:00
V
5 °C 15 mi - 360° 360° 3 kt METAR CYXX 140900Z 36003KT 15SM FEW240 05/04 A2996 RMK CI1 SLP147
01:00
V
7 °C 15 mi - 040° 040° 3 kt METAR CYXX 140800Z 04003KT 15SM SKC 07/05 A2995 RMK SLP144
00:00
V
7 °C 15 mi - 110° 110° 2 kt METAR CYXX 140700Z 11002KT 15SM FEW240 07/05 A2994 RMK CI1 CI TR SLP143

2024年4月13日

时间 代码 天气 温度 能见度 天花板 METAR/SPECI
23:00
V
8 °C 15 mi - 230° 230° 3 kt METAR CYXX 140600Z 23003KT 15SM FEW250 08/06 A2995 RMK CI1 CI TR SLP144
22:00
V
8 °C 15 mi - 230° 230° 6 kt METAR CYXX 140500Z 23006KT 15SM FEW250 08/06 A2993 RMK CI1 CI TR SLP140
21:00
V
10 °C 15 mi - 190° 190° 7 kt METAR CYXX 140400Z 19007KT 15SM FEW260 10/06 A2993 RMK CI1 CI TR SLP137
20:00
V
12 °C 30 mi - 200° 200° 6 kt METAR CYXX 140300Z 20006KT 30SM FEW260 12/07 A2990 RMK CI1 SLP128
19:00
V
15 °C 30 mi - 210° 210° 8 kt METAR CYXX 140200Z 21008KT 30SM FEW210 FEW260 15/07 A2988 RMK CC1CI2 CC TR SLP121
18:00
V
16 °C 30 mi 26.000 ft 220° 220° 10 kt METAR CYXX 140100Z 22010KT 210V270 30SM FEW090 FEW210 BKN260 16/08 A2989 RMK CU1CC2CI4 CU TR SLP124 DENSITY ALT 500FT
17:00
V
18 °C 30 mi - 230° 230° 11 kt METAR CYXX 140000Z 23011KT 210V270 30SM FEW090 FEW200 SCT230 18/07 A2989 RMK CU1CI1CI2 CU TR SLP123 DENSITY ALT 700FT
16:00
V
18 °C 30 mi - 230° 230° 3 kt METAR CYXX 132300Z 23003KT 200V280 30SM FEW200 FEW220 18/08 A2989 RMK CC1CI1 SLP123 DENSITY ALT 700FT
15:00
V
17 °C 30 mi - 210° 210° 5 kt METAR CYXX 132200Z 21005KT 160V270 30SM FEW090 FEW220 17/08 A2990 RMK CU1CI1 CU TR SLP129 DENSITY ALT 600FT
14:00
V
16 °C 30 mi - 290° 290° 4 kt METAR CYXX 132100Z 29004KT 170V310 30SM FEW220 16/06 A2992 RMK CI1 CI TR SLP136 DENSITY ALT 400FT
13:00
V
15 °C 30 mi - 270° 270° 3 kt METAR CYXX 132000Z 27003KT 210V300 30SM FEW220 15/07 A2993 RMK CI1 SLP140
12:00
V
14 °C 30 mi - Var Var 4 kt METAR CYXX 131900Z VRB04KT 30SM FEW034 FEW200 14/06 A2995 RMK CU1CI1 CU TR CI TR SLP146
11:00
V
13 °C 30 mi - 020° 020° 3 kt METAR CYXX 131800Z 02003KT 330V050 30SM FEW025 FEW200 13/07 A2996 RMK CU1CI1 CU TR CI TR SLP149
10:00
V
11 °C 30 mi - Var Var 2 kt METAR CYXX 131700Z VRB02KT 30SM FEW012 FEW200 11/06 A2996 RMK CF1CI1 CF TR CI TR SLP150
09:00
V
9 °C 30 mi - Var Var 2 kt METAR CYXX 131600Z VRB02KT 30SM FEW005 FEW200 09/06 A2996 RMK CF1CC1 CF TR CC TR SLP148
08:00
V
7 °C 30 mi - Var Var 2 kt METAR CYXX 131500Z VRB02KT 30SM VCFG FEW200 07/06 A2995 RMK CC1 CC TR FG BANK E AND S-SW SLP144
07:00
V
3 °C 30 mi - 350° 350° 3 kt METAR CYXX 131400Z CCA 35003KT 30SM MIFG FEW060 03/03 A2994 RMK SC1 SC TR SLP142
06:00
V
3 °C 30 mi - Var Var 2 kt METAR CYXX 131300Z VRB02KT 30SM FEW060 03/02 A2993 RMK SC1 SC TR SLP138
05:00
V
4 °C 15 mi - 330° 330° 2 kt METAR CYXX 131200Z 33002KT 15SM SKC 04/03 A2992 RMK SLP134
04:00
V
4 °C 15 mi - 340° 340° 2 kt METAR CYXX 131100Z 34002KT 15SM SKC 04/03 A2991 RMK SLP133
03:00
V
5 °C 15 mi - 340° 340° 3 kt METAR CYXX 131000Z 34003KT 15SM FEW040 05/04 A2990 RMK SC1 SC TR SLP128
02:00
V
5 °C 15 mi - 060° 060° 2 kt METAR CYXX 130900Z 06002KT 15SM SKC 05/04 A2990 RMK SLP128
01:00
V
5 °C 15 mi - 350° 350° 3 kt METAR CYXX 130800Z 35003KT 15SM SKC 05/04 A2990 RMK SLP127
00:00
V
7 °C 15 mi - 100° 100° 2 kt METAR CYXX 130700Z 10002KT 15SM SKC 07/05 A2989 RMK SLP124

2024年4月12日

时间 代码 天气 温度 能见度 天花板 METAR/SPECI
23:00
V
7 °C 15 mi - 250° 250° 3 kt METAR CYXX 130600Z 25003KT 15SM SKC 07/05 A2988 RMK SLP123
22:00
V
7 °C 15 mi - 170° 170° 4 kt METAR CYXX 130500Z 17004KT 15SM SKC 07/05 A2987 RMK SLP120
21:00
V
9 °C 15 mi - 180° 180° 5 kt METAR CYXX 130400Z 18005KT 15SM FEW030 09/05 A2987 RMK SC1 SC TR SLP117
20:00
V
11 °C 30 mi - 250° 250° 4 kt METAR CYXX 130300Z 25004KT 30SM FEW030 11/05 A2985 RMK SC1 SC TR SLP110
19:00
V
13 °C 30 mi - 260° 260° 8 kt METAR CYXX 130200Z 26008KT 30SM FEW030 13/06 A2984 RMK SC1 SC TR SLP107
18:00
V
14 °C 30 mi - 260° 260° 9 kt METAR CYXX 130100Z 26009KT 30SM FEW032 14/07 A2985 RMK CU1 CU TR SLP109
17:00
V
15 °C 30 mi - 290° 290° 7 kt METAR CYXX 130000Z 29007KT 30SM FEW032 15/07 A2985 RMK CU1 SLP112
16:00
V
15 °C 30 mi - Var Var 2 kt METAR CYXX 122300Z VRB02KT 30SM FEW034 SCT041 15/08 A2986 RMK CU2CU1 SLP114
15:00
V
14 °C 30 mi - 270° 270° 6 kt METAR CYXX 122200Z 27006KT 250V310 30SM SCT034 14/07 A2987 RMK CU3 SLP119
14:00
V
14 °C 30 mi - Var Var 5 kt METAR CYXX 122100Z VRB05KT 30SM SCT032 SCT041 SCT230 14/06 A2988 RMK CU3CU1CI1 CI TR SLP123
13:00
V
13 °C 25 mi - 260° 260° 4 kt METAR CYXX 122000Z 26004KT 240V010 25SM SCT025TCU SCT040 13/07 A2989 RMK TCU3SC1 SLP126
12:00
M
11 °C 25 mi 3.000 ft Var Var 2 kt METAR CYXX 121900Z VRB02KT 25SM SCT025TCU BKN030 BKN040 11/06 A2990 RMK TCU3CU2SC2 SLP129
11:00
M
11 °C 20 mi 1.900 ft Var Var 3 kt METAR CYXX 121800Z VRB03KT 20SM BKN019TCU BKN032 BKN230 11/07 A2991 RMK TCU5SC1CC1 CC TR CONTRAILS SLP133
10:00
V
9 °C 15 mi 4.000 ft 010° 010° 5 kt METAR CYXX 121700Z 01005KT 350V070 15SM FEW009 SCT028 BKN040 BKN220 09/07 A2991 RMK CU1SC2SC3CI1 SLP132
09:00
V
8 °C 10 mi 3.500 ft 010° 010° 5 kt METAR CYXX 121600Z 01005KT 10SM SCT005 BKN035 BKN070 08/08 A2991 RMK CF3SC3AC1 SLP131
08:32
M
7 °C 5 mi 2.500 ft 020° 020° 5 kt METAR CYXX 121532Z 02005KT 5SM BR SCT003 BKN025 BKN037 07/07 A2990 RMK SF3SC3SC1 SLP130
08:00
L
7 °C 5 mi 300 ft 030° 030° 4 kt METAR CYXX 121500Z 03004KT 5SM -DZ BR BKN003 BKN016 OVC028 07/07 A2990 RMK SF5ST2SC1 VIS S 10 VIS N-NE 2 SLP129
07:38
L
7 °C 2¼ mi 300 ft 020° 020° 3 kt METAR CYXX 121438Z 02003KT 2 1/4SM -DZ BR BKN003 BKN015 OVC035 07/07 A2990 RMK SF6ST2SC1 VIS HYR SW SLP128
07:18
M
7 °C 3 mi 1.400 ft 020° 020° 3 kt METAR CYXX 121418Z 02003KT 3SM -DZ BR SCT003 BKN014 OVC034 07/07 A2990 RMK ST4ST2SC2 SLP127
07:00
M
7 °C 4 mi 1.400 ft 010° 010° 3 kt METAR CYXX 121400Z 01003KT 4SM -DZ BR FEW003 BKN014 OVC034 07/07 A2990 RMK SF1ST5SC2 SLP127
06:20
M
7 °C 5 mi 1.400 ft 040° 040° 2 kt METAR CYXX 121320Z 04002KT 5SM -DZ BR FEW003 BKN014 OVC015 07/07 A2988 RMK SF1ST6SC2 SLP123
06:00
M
7 °C 7 mi 1.500 ft 040° 040° 3 kt METAR CYXX 121300Z 04003KT 7SM FEW003 BKN015 OVC022 07/06 A2988 RMK SF1SC6SC2 SF TR SLP123
05:40
M
7 °C 7 mi 1.300 ft 050° 050° 3 kt METAR CYXX 121240Z 05003KT 7SM BKN013 OVC015 07/06 A2988 RMK SC7SC1 SLP123
05:00
V
7 °C 6 mi 3.400 ft 030° 030° 4 kt METAR CYXX 121200Z 03004KT 6SM -SHRA BR SCT015 OVC034 07/06 A2988 RMK SC4SC4 CVCTV CLD EMBD SLP121
04:00
V
7 °C 8 mi 3.300 ft 010° 010° 3 kt METAR CYXX 121100Z 01003KT 320V020 8SM SCT021 BKN033 OVC040 07/06 A2987 RMK SC3SC3SC2 SLP120
03:00
V
7 °C 15 mi 3.300 ft 020° 020° 4 kt METAR CYXX 121000Z 02004KT 15SM SCT023 BKN033 OVC043 07/06 A2986 RMK SC3SC3SC2 SLP116
02:00
V
7 °C 15 mi 4.300 ft 030° 030° 4 kt METAR CYXX 120900Z 03004KT 15SM SCT024 BKN043 OVC093 07/06 A2986 RMK CU3SC3AC2 SLP116
01:00
V
7 °C 15 mi 9.000 ft 010° 010° 3 kt METAR CYXX 120800Z 01003KT 15SM SCT040 BKN090 07/06 A2986 RMK SC4AC3 SLP115
00:00
V
7 °C 15 mi 5.000 ft 020° 020° 3 kt METAR CYXX 120700Z 02003KT 15SM SCT042 OVC050 07/06 A2986 RMK SC4SC4 SLP115

2024年4月11日

时间 代码 天气 温度 能见度 天花板 METAR/SPECI
23:00
V
7 °C 15 mi 5.000 ft 040° 040° 4 kt METAR CYXX 120600Z 04004KT 15SM SCT040 OVC050 07/06 A2985 RMK SC4SC5 SLP113
报告变更